createdAt,value
2022-09-24T00:02:15.318Z,95725.87
2022-09-24T00:04:43.968Z,95723.89
2022-09-24T00:07:18.652Z,95726.44
2022-09-24T00:09:43.137Z,95721.81
2022-09-24T00:12:13.440Z,95726.36
2022-09-24T00:14:42.179Z,95725.34
2022-09-24T00:17:12.767Z,95725.07
2022-09-24T00:19:44.524Z,95718.75
2022-09-24T00:22:13.476Z,95721.29
2022-09-24T00:25:00.050Z,95723.58
2022-09-24T00:27:30.969Z,95722.72
2022-09-24T00:30:02.482Z,95725.45
2022-09-24T00:32:31.410Z,95722.06
2022-09-24T00:35:00.069Z,95709.34
2022-09-24T00:37:28.724Z,95718.87
2022-09-24T00:39:57.400Z,95724.97
2022-09-24T00:42:29.661Z,95718.87
2022-09-24T00:44:58.381Z,95701.05
2022-09-24T00:47:39.191Z,95711.59
2022-09-24T00:50:11.022Z,95720.70
2022-09-24T00:52:43.099Z,95718.34
2022-09-24T00:55:16.711Z,95713.94
2022-09-24T00:57:46.211Z,95711.98
2022-09-24T01:00:16.117Z,95713.11
2022-09-24T01:02:48.248Z,95702.96
2022-09-24T01:05:17.284Z,95703.36
2022-09-24T01:07:48.999Z,95702.04
2022-09-24T01:10:22.180Z,95703.36
2022-09-24T01:13:00.042Z,95701.05
2022-09-24T01:15:36.607Z,95704.95
2022-09-24T01:18:24.208Z,95704.11
2022-09-24T01:20:56.203Z,95700.87
2022-09-24T01:23:53.463Z,95702.52
2022-09-24T01:26:33.782Z,95705.83
2022-09-24T01:29:25.286Z,95705.89
2022-09-24T01:32:18.806Z,95701.70
2022-09-24T01:34:59.398Z,95698.90
2022-09-24T01:37:32.447Z,95698.45
2022-09-24T01:40:04.587Z,95701.99
2022-09-24T01:42:35.228Z,95703.74
2022-09-24T01:45:05.951Z,95702.32
2022-09-24T01:47:39.143Z,95703.79
2022-09-24T01:50:12.981Z,95704.84
2022-09-24T01:52:56.386Z,95706.95
2022-09-24T01:55:28.328Z,95704.41
2022-09-24T01:58:06.260Z,95708.83
2022-09-24T02:00:35.487Z,95706.11
2022-09-24T02:03:19.100Z,95708.93
2022-09-24T02:06:05.683Z,95714.27
2022-09-24T02:08:40.349Z,95714.05
2022-09-24T02:11:18.031Z,95720.38
2022-09-24T02:14:01.634Z,95724.13
2022-09-24T02:16:35.714Z,95727.27
2022-09-24T02:19:12.213Z,95727.69
2022-09-24T02:21:44.976Z,95732.04
2022-09-24T02:24:33.704Z,95729.34
2022-09-24T02:27:02.761Z,95735.78
2022-09-24T02:29:31.436Z,95739.23
2022-09-24T02:32:02.138Z,95744.16
2022-09-24T02:34:33.791Z,95742.23
2022-09-24T02:37:11.041Z,95747.06
2022-09-24T02:39:43.218Z,95750.95
2022-09-24T02:42:14.534Z,95750.89
2022-09-24T02:44:43.272Z,95756.05
2022-09-24T02:47:12.270Z,95752.31
2022-09-24T02:49:41.337Z,95753.98
2022-09-24T02:52:16.451Z,95755.11
2022-09-24T02:54:51.376Z,95757.20
2022-09-24T02:57:20.336Z,95760.75
2022-09-24T02:59:49.309Z,95755.24
2022-09-24T03:02:19.812Z,95763.90
2022-09-24T03:04:51.647Z,95774.55
2022-09-24T03:07:25.069Z,95768.96
2022-09-24T03:09:54.001Z,95768.67
2022-09-24T03:12:25.652Z,95772.92
2022-09-24T03:14:54.471Z,95762.44
2022-09-24T03:17:23.368Z,95765.56
2022-09-24T03:19:55.010Z,95766.25
2022-09-24T03:22:24.168Z,95761.22
2022-09-24T03:24:56.948Z,95767.34
2022-09-24T03:27:35.196Z,95770.39
2022-09-24T03:30:21.819Z,95772.63
2022-09-24T03:32:54.434Z,95773.48
2022-09-24T03:35:30.556Z,95774.58
2022-09-24T03:37:59.263Z,95774.97
2022-09-24T03:40:30.134Z,95786.37
2022-09-24T03:43:02.163Z,95780.92
2022-09-24T03:45:33.968Z,95782.34
2022-09-24T03:48:11.049Z,95785.44
2022-09-24T03:50:40.975Z,95780.95
2022-09-24T03:53:12.084Z,95786.05
2022-09-24T03:56:04.952Z,95779.54
2022-09-24T03:58:37.855Z,95786.85
2022-09-24T04:01:11.315Z,95790.73
2022-09-24T04:03:44.672Z,95787.16
2022-09-24T04:06:14.915Z,95791.72
2022-09-24T04:08:45.315Z,95790.11
2022-09-24T04:11:17.223Z,95793.52
2022-09-24T04:13:47.789Z,95793.61
2022-09-24T04:16:16.935Z,95791.11
2022-09-24T04:18:47.491Z,95795.39
2022-09-24T04:21:17.862Z,95795.61
2022-09-24T04:23:46.603Z,95789.25
2022-09-24T04:26:15.565Z,95793.52
2022-09-24T04:28:45.682Z,95801.91
2022-09-24T04:31:14.326Z,95798.80
2022-09-24T04:33:45.866Z,95806.09
2022-09-24T04:36:14.614Z,95813.77
2022-09-24T04:38:51.105Z,95811.94
2022-09-24T04:41:19.878Z,95818.30
2022-09-24T04:43:51.344Z,95820.84
2022-09-24T04:46:27.642Z,95799.55
2022-09-24T04:48:56.418Z,95814.00
2022-09-24T04:51:27.536Z,95809.02
2022-09-24T04:53:56.114Z,95811.10
2022-09-24T04:56:24.847Z,95820.53
2022-09-24T04:58:56.265Z,95815.55
2022-09-24T05:01:26.980Z,95815.84
2022-09-24T05:03:57.411Z,95810.22
2022-09-24T05:06:29.716Z,95818.55
2022-09-24T05:09:02.225Z,95820.30
2022-09-24T05:11:32.244Z,95823.95
2022-09-24T05:14:02.464Z,95815.44
2022-09-24T05:16:31.853Z,95823.81
2022-09-24T05:19:01.943Z,95820.75
2022-09-24T05:21:32.472Z,95815.07
2022-09-24T05:24:06.443Z,95821.31
2022-09-24T05:26:56.350Z,95817.73
2022-09-24T05:29:25.456Z,95820.11
2022-09-24T05:31:57.627Z,95819.50
2022-09-24T05:40:29.822Z,95830.23
2022-09-24T05:43:29.107Z,95830.46
2022-09-24T05:46:08.189Z,95840.48
2022-09-24T05:48:50.477Z,95841.64
2022-09-24T05:51:26.730Z,95848.22
2022-09-24T05:56:11.408Z,95843.38
2022-09-24T05:59:28.627Z,95842.66
2022-09-24T06:01:57.682Z,95841.14
2022-09-24T06:04:30.379Z,95847.08
2022-09-24T06:06:59.347Z,95846.73
2022-09-24T06:09:37.088Z,95844.75
2022-09-24T06:12:23.763Z,95846.96
2022-09-24T06:14:44.368Z,95853.77
2022-09-24T06:17:13.507Z,95860.09
2022-09-24T06:20:06.920Z,95849.50
2022-09-24T06:22:29.470Z,95849.31
2022-09-24T06:25:04.048Z,95857.48
2022-09-24T06:27:33.681Z,95860.38
2022-09-24T06:30:05.337Z,95861.38
2022-09-24T06:32:43.443Z,95861.38
2022-09-24T06:35:25.445Z,95864.15
2022-09-24T06:38:08.557Z,95863.69
2022-09-24T06:40:48.359Z,95866.79
2022-09-24T06:43:27.064Z,95870.43
2022-09-24T06:49:17.802Z,95867.59
2022-09-24T06:52:02.922Z,95871.11
2022-09-24T06:54:38.675Z,95866.70
2022-09-24T06:57:29.452Z,95870.16
2022-09-24T07:00:03.789Z,95867.47
2022-09-24T07:02:34.484Z,95869.47
2022-09-24T07:05:23.765Z,95870.64
2022-09-24T07:07:58.551Z,95868.99
2022-09-24T07:10:34.873Z,95867.53
2022-09-24T07:13:06.466Z,95871.38
2022-09-24T07:15:39.356Z,95870.00
2022-09-24T07:18:16.508Z,95873.36
2022-09-24T07:20:46.977Z,95864.15
2022-09-24T07:23:18.703Z,95867.10
2022-09-24T07:25:50.825Z,95869.70
2022-09-24T07:28:30.716Z,95854.29
2022-09-24T07:31:01.937Z,95858.70
2022-09-24T07:33:32.911Z,95853.63
2022-09-24T07:36:11.178Z,95855.71
2022-09-24T07:38:42.945Z,95861.13
2022-09-24T07:41:12.297Z,95858.00
2022-09-24T07:43:43.663Z,95859.30
2022-09-24T07:46:12.936Z,95855.91
2022-09-24T07:48:45.876Z,95850.85
2022-09-24T07:51:18.029Z,95853.58
2022-09-24T07:53:52.644Z,95849.03
2022-09-24T07:56:23.137Z,95851.02
2022-09-24T07:58:53.578Z,95848.31
2022-09-24T08:04:18.147Z,95849.61
2022-09-24T08:06:47.818Z,95844.27
2022-09-24T08:09:19.037Z,95841.72
2022-09-24T08:11:50.094Z,95844.27
2022-09-24T08:14:20.200Z,95843.69
2022-09-24T08:16:49.127Z,95839.50
2022-09-24T08:19:21.034Z,95843.59
2022-09-24T08:21:49.929Z,95843.28
2022-09-24T08:24:18.626Z,95844.44
2022-09-24T08:26:47.255Z,95840.27
2022-09-24T08:29:17.537Z,95846.45
2022-09-24T08:31:47.417Z,95839.37
2022-09-24T08:34:18.012Z,95836.30
2022-09-24T08:36:49.394Z,95832.00
2022-09-24T08:39:18.357Z,95834.25
2022-09-24T08:41:55.472Z,95836.49
2022-09-24T08:45:03.199Z,95838.23
2022-09-24T08:47:55.424Z,95835.70
2022-09-24T08:50:37.705Z,95832.53
2022-09-24T08:53:24.680Z,95820.54
2022-09-24T08:56:00.035Z,95823.30
2022-09-24T08:58:44.651Z,95820.23
2022-09-24T09:01:19.596Z,95814.30
2022-09-24T09:04:25.002Z,95813.02
2022-09-24T09:07:21.750Z,95810.14
2022-09-24T09:10:05.623Z,95807.34
2022-09-24T09:12:43.875Z,95794.22
2022-09-24T09:15:18.336Z,95800.25
2022-09-24T09:18:13.664Z,95798.42
2022-09-24T09:20:45.741Z,95800.81
2022-09-24T09:23:26.299Z,95790.56
2022-09-24T09:26:01.689Z,95794.58
2022-09-24T09:28:32.734Z,95791.02
2022-09-24T09:31:08.482Z,95790.00
2022-09-24T09:33:49.341Z,95785.12
2022-09-24T09:36:26.294Z,95780.53
2022-09-24T09:46:09.911Z,95764.42
2022-09-24T09:48:44.606Z,95765.05
2022-09-24T09:51:22.593Z,95762.13
2022-09-24T09:53:59.960Z,95761.80
2022-09-24T09:56:34.529Z,95757.41
2022-09-24T09:59:08.722Z,95746.27
2022-09-24T10:01:41.951Z,95736.06
2022-09-24T10:04:36.743Z,95726.67
2022-09-24T10:07:08.408Z,95730.34
2022-09-24T10:09:49.506Z,95727.02
2022-09-24T10:12:24.429Z,95730.86
2022-09-24T10:15:02.296Z,95722.42
2022-09-24T10:17:37.119Z,95717.20
2022-09-24T10:20:32.584Z,95712.93
2022-09-24T10:23:04.401Z,95710.79
2022-09-24T10:25:36.528Z,95709.50
2022-09-24T10:28:28.539Z,95700.36
2022-09-24T10:31:00.357Z,95707.23
2022-09-24T10:33:31.245Z,95705.23
2022-09-24T10:36:18.235Z,95706.72
2022-09-24T10:38:46.891Z,95709.59
2022-09-24T10:41:30.617Z,95703.62
2022-09-24T10:44:08.198Z,95702.67
2022-09-24T10:46:59.855Z,95698.30
2022-09-24T10:49:49.656Z,95698.55
2022-09-24T10:52:40.638Z,95692.56
2022-09-24T10:55:22.778Z,95690.52
2022-09-24T10:58:12.293Z,95683.15
2022-09-24T11:00:53.109Z,95677.44
2022-09-24T11:03:47.138Z,95685.64
2022-09-24T11:06:38.566Z,95681.95
2022-09-24T11:09:22.179Z,95689.41
2022-09-24T11:12:16.513Z,95691.77
2022-09-24T11:15:15.340Z,95680.79
2022-09-24T11:18:13.905Z,95673.72
2022-09-24T11:20:54.597Z,95668.64
2022-09-24T11:23:38.194Z,95666.33
2022-09-24T11:26:18.667Z,95665.85
2022-09-24T11:28:50.297Z,95658.11
2022-09-24T11:31:43.178Z,95657.67
2022-09-24T11:34:32.928Z,95650.66
2022-09-24T11:37:10.460Z,95649.73
2022-09-24T11:40:07.872Z,95646.47
2022-09-24T11:42:39.710Z,95638.88
2022-09-24T11:45:17.436Z,95635.63
2022-09-24T11:48:07.098Z,95643.53
2022-09-24T11:50:55.304Z,95632.95
2022-09-24T11:53:48.291Z,95635.16
2022-09-24T11:56:46.693Z,95636.96
2022-09-24T11:59:33.460Z,95637.37
2022-09-24T12:02:18.441Z,95631.10
2022-09-24T12:05:08.445Z,95628.56
2022-09-24T12:08:04.927Z,95627.80
2022-09-24T12:10:37.450Z,95624.32
2022-09-24T12:13:24.179Z,95612.62
2022-09-24T12:16:01.756Z,95620.86
2022-09-24T12:18:42.668Z,95618.98
2022-09-24T12:21:30.994Z,95618.14
2022-09-24T12:24:03.245Z,95616.73
2022-09-24T12:26:41.639Z,95625.16
2022-09-24T12:30:02.028Z,95616.99
2022-09-24T12:32:54.775Z,95620.39
2022-09-24T12:35:35.498Z,95611.81
2022-09-24T12:38:16.258Z,95615.09
2022-09-24T12:41:03.218Z,95614.33
2022-09-24T12:43:37.911Z,95621.45
2022-09-24T12:46:11.840Z,95630.07
2022-09-24T12:48:41.275Z,95622.86
2022-09-24T12:51:12.403Z,95617.98
2022-09-24T12:53:46.562Z,95615.86
2022-09-24T12:56:18.202Z,95609.74
2022-09-24T12:58:48.765Z,95604.93
2022-09-24T13:01:32.762Z,95602.86
2022-09-24T13:04:27.559Z,95601.17
2022-09-24T13:06:56.469Z,95596.16
2022-09-24T13:09:40.323Z,95594.04
2022-09-24T13:12:24.540Z,95598.59
2022-09-24T13:15:06.696Z,95595.47
2022-09-24T13:17:41.050Z,95585.00
2022-09-24T13:20:12.696Z,95586.09
2022-09-24T13:22:41.490Z,95583.39
2022-09-24T13:25:13.178Z,95582.37
2022-09-24T13:27:46.403Z,95594.12
2022-09-24T13:30:39.079Z,95590.31
2022-09-24T13:33:29.797Z,95583.05
2022-09-24T13:36:07.598Z,95577.89
2022-09-24T13:38:42.074Z,95583.73
2022-09-24T13:41:28.869Z,95576.88
2022-09-24T13:44:01.542Z,95575.92
2022-09-24T13:46:33.034Z,95572.68
2022-09-24T13:49:09.735Z,95566.89
2022-09-24T13:51:41.485Z,95568.08
2022-09-24T13:54:16.466Z,95558.70
2022-09-24T13:57:00.199Z,95557.40
2022-09-24T13:59:31.841Z,95554.45
2022-09-24T14:02:02.081Z,95555.38
2022-09-24T14:04:31.660Z,95548.95
2022-09-24T14:07:03.522Z,95542.98
2022-09-24T14:09:37.263Z,95544.82
2022-09-24T14:12:19.315Z,95545.64
2022-09-24T14:14:54.356Z,95548.08
2022-09-24T14:17:34.866Z,95542.75
2022-09-24T14:20:06.246Z,95549.73
2022-09-24T14:22:45.734Z,95547.70
2022-09-24T14:25:40.037Z,95553.41
2022-09-24T14:28:08.946Z,95545.22
2022-09-24T14:30:40.860Z,95545.34
2022-09-24T14:33:12.651Z,95546.11
2022-09-24T14:35:47.420Z,95549.18
2022-09-24T14:38:29.530Z,95538.86
2022-09-24T14:41:10.129Z,95545.64
2022-09-24T14:43:47.444Z,95540.48
2022-09-24T14:46:24.703Z,95552.73
2022-09-24T14:48:53.437Z,95554.59
2022-09-24T14:51:30.605Z,95544.73
2022-09-24T14:54:19.795Z,95558.40
2022-09-24T14:56:50.063Z,95552.73
2022-09-24T14:59:27.448Z,95549.05
2022-09-24T15:02:23.319Z,95552.65
2022-09-24T15:05:01.878Z,95559.50
2022-09-24T15:07:35.027Z,95556.22
2022-09-24T15:10:08.658Z,95554.53
2022-09-24T15:12:42.444Z,95550.30
2022-09-24T15:15:25.918Z,95561.10
2022-09-24T15:18:03.154Z,95557.23
2022-09-24T15:20:46.814Z,95560.23
2022-09-24T15:23:15.615Z,95553.59
2022-09-24T15:25:53.387Z,95561.59
2022-09-24T15:28:41.427Z,95558.17
2022-09-24T15:31:16.359Z,95562.39
2022-09-24T15:33:46.387Z,95564.30
2022-09-24T15:36:18.566Z,95567.05
2022-09-24T15:38:50.509Z,95570.89
2022-09-24T15:47:31.130Z,95576.59
2022-09-24T15:50:19.314Z,95573.66
2022-09-24T15:52:53.827Z,95573.55
2022-09-24T15:55:24.401Z,95569.67
2022-09-24T15:57:53.165Z,95558.54
2022-09-24T16:00:35.193Z,95573.52
2022-09-24T16:04:29.764Z,95579.06
2022-09-24T16:06:42.064Z,95581.21
2022-09-24T16:09:17.952Z,95584.62
2022-09-24T16:11:38.302Z,95591.16
2022-09-24T16:14:08.744Z,95591.63
2022-09-24T16:16:41.866Z,95595.41
2022-09-24T16:19:11.043Z,95594.11
2022-09-24T16:21:41.607Z,95594.69
2022-09-24T16:24:10.677Z,95592.80
2022-09-24T16:26:39.451Z,95604.19
2022-09-24T16:29:14.126Z,95600.29
2022-09-24T16:31:44.405Z,95605.34
2022-09-24T16:34:16.764Z,95609.42
2022-09-24T16:36:45.336Z,95603.34
2022-09-24T16:39:15.971Z,95605.08
2022-09-24T16:41:46.885Z,95607.95
2022-09-24T16:44:15.712Z,95617.16
2022-09-24T16:46:45.947Z,95613.84
2022-09-24T16:49:14.910Z,95612.30
2022-09-24T16:51:46.567Z,95620.52
2022-09-24T16:54:15.476Z,95615.91
2022-09-24T16:56:49.094Z,95616.64
2022-09-24T16:59:20.097Z,95626.60
2022-09-24T17:01:48.840Z,95629.41
2022-09-24T17:04:19.520Z,95621.69
2022-09-24T17:06:51.313Z,95630.69
2022-09-24T17:09:37.853Z,95634.06
2022-09-24T17:12:07.672Z,95638.44
2022-09-24T17:14:38.599Z,95640.45
2022-09-24T17:17:07.933Z,95643.91
2022-09-24T17:19:36.542Z,95651.83
2022-09-24T17:22:06.186Z,95652.36
2022-09-24T17:24:36.444Z,95656.98
2022-09-24T17:27:08.249Z,95651.49
2022-09-24T17:29:37.327Z,95660.61
2022-09-24T17:32:06.016Z,95660.05
2022-09-24T17:34:34.720Z,95656.55
2022-09-24T17:37:15.380Z,95659.22
2022-09-24T17:39:44.011Z,95665.16
2022-09-24T17:42:13.277Z,95659.30
2022-09-24T17:44:44.526Z,95667.92
2022-09-24T17:47:15.821Z,95667.33
2022-09-24T17:49:47.417Z,95675.61
2022-09-24T17:52:20.621Z,95676.83
2022-09-24T17:54:56.778Z,95677.70
2022-09-24T17:57:31.669Z,95684.31
2022-09-24T18:00:00.422Z,95676.88
2022-09-24T18:02:29.119Z,95678.27
2022-09-24T18:04:57.762Z,95675.71
2022-09-24T18:07:28.038Z,95672.36
2022-09-24T18:09:56.744Z,95681.09
2022-09-24T18:12:25.553Z,95685.53
2022-09-24T18:14:56.821Z,95680.30
2022-09-24T18:17:25.556Z,95680.52
2022-09-24T18:20:04.073Z,95677.96
2022-09-24T18:22:32.956Z,95681.06
2022-09-24T18:25:05.743Z,95680.91
2022-09-24T18:27:36.211Z,95689.69
2022-09-24T18:30:07.622Z,95669.40
2022-09-24T18:32:37.283Z,95685.69
2022-09-24T18:35:11.224Z,95696.90
2022-09-24T18:37:43.043Z,95698.73
2022-09-24T18:40:12.442Z,95700.06
2022-09-24T18:42:42.767Z,95706.02
2022-09-24T18:45:11.855Z,95705.20
2022-09-24T18:47:43.300Z,95707.47
2022-09-24T18:50:14.528Z,95701.97
2022-09-24T18:52:45.185Z,95703.13
2022-09-24T18:55:16.687Z,95706.47
2022-09-24T18:57:47.126Z,95698.42
2022-09-24T19:00:19.707Z,95698.52
2022-09-24T19:02:48.981Z,95691.83
2022-09-24T19:05:17.889Z,95691.75
2022-09-24T19:07:49.714Z,95693.77
2022-09-24T19:10:18.506Z,95684.64
2022-09-24T19:12:47.192Z,95688.84
2022-09-24T19:15:23.304Z,95685.90
2022-09-24T19:17:54.002Z,95694.95
2022-09-24T19:20:27.397Z,95698.55
2022-09-24T19:22:57.752Z,95698.72
2022-09-24T19:25:29.460Z,95702.23
2022-09-24T19:27:58.439Z,95699.64
2022-09-24T19:30:27.821Z,95696.65
2022-09-24T19:33:01.314Z,95705.22
2022-09-24T19:35:33.446Z,95705.66
2022-09-24T19:38:04.131Z,95706.14
2022-09-24T19:40:34.855Z,95709.22
2022-09-24T19:43:03.800Z,95710.34
2022-09-24T19:45:35.113Z,95710.95
2022-09-24T19:48:10.492Z,95715.39
2022-09-24T19:50:47.693Z,95717.13
2022-09-24T19:53:17.007Z,95717.48
2022-09-24T19:55:51.335Z,95716.45
2022-09-24T19:58:21.790Z,95710.07
2022-09-24T20:00:52.716Z,95715.95
2022-09-24T20:03:22.253Z,95721.05
2022-09-24T20:06:18.509Z,95716.44
2022-09-24T20:08:39.698Z,95716.58
2022-09-24T20:11:11.238Z,95719.39
2022-09-24T20:13:43.538Z,95723.45
2022-09-24T20:16:14.713Z,95717.64
2022-09-24T20:18:49.537Z,95725.02
2022-09-24T20:21:40.393Z,95730.83
2022-09-24T20:24:16.380Z,95730.77
2022-09-24T20:27:06.260Z,95730.06
2022-09-24T20:29:37.759Z,95731.51
2022-09-24T20:32:09.232Z,95727.22
2022-09-24T20:34:43.345Z,95724.20
2022-09-24T20:37:15.061Z,95728.55
2022-09-24T20:39:48.276Z,95725.58
2022-09-24T20:42:17.207Z,95727.11
2022-09-24T20:44:50.329Z,95731.72
2022-09-24T20:47:19.126Z,95737.39
2022-09-24T20:49:50.692Z,95715.78
2022-09-24T20:52:23.081Z,95734.27
2022-09-24T20:54:52.870Z,95736.11
2022-09-24T20:57:26.196Z,95734.50
2022-09-24T20:59:59.398Z,95733.61
2022-09-24T21:02:44.098Z,95736.37
2022-09-24T21:05:18.385Z,95731.20
2022-09-24T21:07:56.163Z,95730.92
2022-09-24T21:10:29.582Z,95735.36
2022-09-24T21:13:03.926Z,95738.41
2022-09-24T21:15:33.167Z,95739.80
2022-09-24T21:18:22.849Z,95743.89
2022-09-24T21:20:42.998Z,95746.45
2022-09-24T21:23:13.799Z,95750.34
2022-09-24T21:25:54.347Z,95741.23
2022-09-24T21:28:17.287Z,95736.30
2022-09-24T21:30:47.490Z,95738.11
2022-09-24T21:33:18.506Z,95740.53
2022-09-24T21:35:53.345Z,95746.70
2022-09-24T21:38:26.627Z,95742.43
2022-09-24T21:41:02.589Z,95734.88
2022-09-24T21:43:38.749Z,95731.58
2022-09-24T21:49:10.857Z,95728.39
2022-09-24T21:51:43.586Z,95728.33
2022-09-24T21:54:16.535Z,95731.41
2022-09-24T21:56:46.696Z,95738.48
2022-09-24T21:59:34.061Z,95736.03
2022-09-24T22:02:03.497Z,95729.52
2022-09-24T22:04:36.348Z,95732.08
2022-09-24T22:07:05.537Z,95725.56
2022-09-24T22:09:34.886Z,95732.37
2022-09-24T22:12:04.739Z,95733.23
2022-09-24T22:14:35.043Z,95714.22
2022-09-24T22:17:06.224Z,95736.58
2022-09-24T22:19:36.893Z,95735.25
2022-09-24T22:22:06.791Z,95742.56
2022-09-24T22:24:37.025Z,95745.41
2022-09-24T22:27:05.567Z,95745.55
2022-09-24T22:29:34.182Z,95744.27
2022-09-24T22:32:03.684Z,95745.86
2022-09-24T22:34:49.885Z,95741.61
2022-09-24T22:37:22.643Z,95742.06
2022-09-24T22:39:51.479Z,95739.89
2022-09-24T22:42:20.138Z,95741.99
2022-09-24T22:44:48.721Z,95741.65
2022-09-24T22:47:18.177Z,95740.11
2022-09-24T22:49:46.824Z,95739.93
2022-09-24T22:52:16.656Z,95737.23
2022-09-24T22:54:45.382Z,95744.38
2022-09-24T22:57:14.091Z,95736.27
2022-09-24T22:59:44.853Z,95745.50
2022-09-24T23:02:17.015Z,95745.54
2022-09-24T23:04:51.627Z,95735.89
2022-09-24T23:07:21.115Z,95741.53
2022-09-24T23:09:52.214Z,95736.84
2022-09-24T23:12:26.488Z,95742.41
2022-09-24T23:14:55.783Z,95748.17
2022-09-24T23:17:27.364Z,95755.81
2022-09-24T23:19:56.716Z,95749.39
2022-09-24T23:22:25.651Z,95745.39
2022-09-24T23:24:57.605Z,95745.39
2022-09-24T23:27:26.782Z,95739.52
2022-09-24T23:29:57.241Z,95741.70
2022-09-24T23:32:27.699Z,95736.47
2022-09-24T23:34:56.585Z,95737.05
2022-09-24T23:37:29.830Z,95733.81
2022-09-24T23:39:58.651Z,95735.89
2022-09-24T23:42:32.556Z,95733.81
2022-09-24T23:45:06.740Z,95740.83
2022-09-24T23:47:40.038Z,95735.75
2022-09-24T23:50:09.358Z,95746.64
2022-09-24T23:52:38.301Z,95739.53
2022-09-24T23:55:22.167Z,95741.53
2022-09-24T23:57:51.160Z,95740.98
